Pompano Beach, Florida
Current Conditions -  °F | °C
As of 1:53 PM on Tuesday 21 Oct 2014 (Local Time) from KFXE Reporting Station
Scattered Clouds Scattered Clouds  
Wind Chill: 79°   Ceiling: Unl
Heat Index: 82°   Visibility: 10mi
Dew Point: 74°   Wind: 6mph
Humidity: 84%   Direction: 230°SW
Pressure: 29.93"   Gusts: NA
Location:  26.23°N, 80.16°W
Report Text: KFXE 211753Z 23005KT 10SM SCT040 SCT110 26/23 A2993 RMK AO2 RAE52 SLP137 P0013 60016 T02610233 10278 20233 58014
Loading
Personal Weather Stations






























Interactive Weather Map
Tropical Storm Tracking
New forecast layout! Learn more

10-Day Weather Forecast

Advertisements
Track Severe Weather on mobile